Time,TemperatureF,DewpointF,PressureIn,WindDirection,WindDirectionDegrees,WindSpeedMPH,WindSpeedGustMPH,Humidity,HourlyPrecipIn,Conditions,Clouds,dailyrainin,SoftwareType,DateUTC
2013-03-22 00:02:00,52.0,20.0,29.49,ENE,68,2.0,4.0,28,0.00,,,0.00,,2013-03-22 07:02:00,
2013-03-22 00:11:00,52.0,20.0,29.49,ENE,68,2.0,4.0,28,0.00,,,0.00,,2013-03-22 07:11:00,
2013-03-22 00:21:00,51.0,19.0,29.49,ESE,113,1.0,2.0,28,0.00,,,0.00,,2013-03-22 07:21:00,
2013-03-22 00:31:00,51.0,18.0,29.49,ESE,113,2.0,3.0,27,0.00,,,0.00,,2013-03-22 07:31:00,
2013-03-22 00:41:00,51.0,18.0,29.49,ESE,113,2.0,3.0,27,0.00,,,0.00,,2013-03-22 07:41:00,
2013-03-22 00:52:00,51.0,18.0,29.49,ENE,68,3.0,4.0,27,0.00,,,0.00,,2013-03-22 07:52:00,
2013-03-22 01:02:00,50.0,17.0,29.49,NE,45,2.0,4.0,27,0.00,,,0.00,,2013-03-22 08:02:00,
2013-03-22 01:12:00,50.0,17.0,29.49,NE,45,2.0,4.0,27,0.00,,,0.00,,2013-03-22 08:12:00,
2013-03-22 01:21:00,50.0,17.0,29.49,NE,45,2.0,4.0,27,0.00,,,0.00,,2013-03-22 08:21:00,
2013-03-22 01:31:00,50.0,17.0,29.49,East,90,1.0,3.0,27,0.00,,,0.00,,2013-03-22 08:31:00,
2013-03-22 01:41:00,50.0,17.0,29.49,East,90,1.0,3.0,27,0.00,,,0.00,,2013-03-22 08:41:00,
2013-03-22 01:52:00,49.0,16.0,29.49,SSE,158,2.0,3.0,27,0.00,,,0.00,,2013-03-22 08:52:00,
2013-03-22 02:01:00,49.0,16.0,29.49,NNE,23,0.0,4.0,27,0.00,,,0.00,,2013-03-22 09:01:00,
2013-03-22 02:11:00,49.0,16.0,29.49,NNE,23,0.0,4.0,27,0.00,,,0.00,,2013-03-22 09:11:00,
2013-03-22 02:22:00,49.0,16.0,29.49,NNE,23,3.0,3.0,27,0.00,,,0.00,,2013-03-22 09:22:00,
2013-03-22 02:32:00,49.0,16.0,29.49,East,90,1.0,4.0,26,0.00,,,0.00,,2013-03-22 09:32:00,
2013-03-22 02:42:00,49.0,16.0,29.49,East,90,1.0,4.0,26,0.00,,,0.00,,2013-03-22 09:42:00,
2013-03-22 02:53:00,49.0,16.0,29.49,NNE,23,1.0,3.0,27,0.00,,,0.00,,2013-03-22 09:53:00,
2013-03-22 03:02:00,48.0,16.0,29.49,ESE,113,1.0,2.0,27,0.00,,,0.00,,2013-03-22 10:02:00,
2013-03-22 03:11:00,48.0,16.0,29.49,ESE,113,1.0,2.0,27,0.00,,,0.00,,2013-03-22 10:11:00,
2013-03-22 03:22:00,48.0,16.0,29.46,ENE,68,1.0,2.0,27,0.00,,,0.00,,2013-03-22 10:22:00,
2013-03-22 03:32:00,47.0,15.0,29.49,North,0,0.0,4.0,27,0.00,,,0.00,,2013-03-22 10:32:00,
2013-03-22 03:42:00,47.0,15.0,29.49,North,0,0.0,4.0,27,0.00,,,0.00,,2013-03-22 10:42:00,
2013-03-22 03:52:00,47.0,15.0,29.46,ENE,68,2.0,3.0,27,0.00,,,0.00,,2013-03-22 10:52:00,
2013-03-22 04:02:00,47.0,15.0,29.49,East,90,2.0,3.0,27,0.00,,,0.00,,2013-03-22 11:02:00,
2013-03-22 04:11:00,47.0,15.0,29.49,East,90,2.0,3.0,27,0.00,,,0.00,,2013-03-22 11:11:00,
2013-03-22 04:22:00,47.0,15.0,29.46,ENE,68,1.0,2.0,27,0.00,,,0.00,,2013-03-22 11:22:00,
2013-03-22 04:32:00,47.0,15.0,29.46,NNW,338,0.0,1.0,27,0.00,,,0.00,,2013-03-22 11:32:00,
2013-03-22 04:41:00,47.0,15.0,29.46,NNW,338,0.0,1.0,27,0.00,,,0.00,,2013-03-22 11:41:00,
2013-03-22 04:52:00,46.0,14.0,29.46,WNW,293,2.0,3.0,27,0.00,,,0.00,,2013-03-22 11:52:00,
2013-03-22 05:12:00,46.0,15.0,29.49,NNE,23,1.0,4.0,28,0.00,,,0.00,,2013-03-22 12:12:00,
2013-03-22 05:21:00,46.0,15.0,29.49,NNE,23,1.0,4.0,28,0.00,,,0.00,,2013-03-22 12:21:00,
2013-03-22 05:32:00,46.0,15.0,29.49,ENE,68,1.0,4.0,28,0.00,,,0.00,,2013-03-22 12:32:00,
2013-03-22 05:41:00,46.0,15.0,29.49,ENE,68,1.0,4.0,28,0.00,,,0.00,,2013-03-22 12:41:00,
2013-03-22 05:52:00,46.0,15.0,29.46,ENE,68,0.0,2.0,28,0.00,,,0.00,,2013-03-22 12:52:00,
2013-03-22 06:01:00,45.0,14.0,29.46,NW,315,2.0,3.0,28,0.00,,,0.00,,2013-03-22 13:01:00,
2013-03-22 06:11:00,45.0,14.0,29.46,NW,315,2.0,3.0,28,0.00,,,0.00,,2013-03-22 13:11:00,
2013-03-22 06:21:00,45.0,14.0,29.49,ENE,68,2.0,3.0,28,0.00,,,0.00,,2013-03-22 13:21:00,
2013-03-22 06:32:00,45.0,14.0,29.49,NE,45,1.0,4.0,28,0.00,,,0.00,,2013-03-22 13:32:00,
2013-03-22 06:41:00,45.0,14.0,29.49,NE,45,1.0,4.0,28,0.00,,,0.00,,2013-03-22 13:41:00,
2013-03-22 06:52:00,45.0,14.0,29.49,East,90,0.0,2.0,28,0.00,,,0.00,,2013-03-22 13:52:00,
2013-03-22 07:02:00,45.0,14.0,29.49,NE,45,2.0,3.0,28,0.00,,,0.00,,2013-03-22 14:02:00,
2013-03-22 07:21:00,45.0,15.0,29.49,ESE,113,2.0,3.0,29,0.00,,,0.00,,2013-03-22 14:21:00,
2013-03-22 07:31:00,45.0,15.0,29.52,NE,45,1.0,3.0,29,0.00,,,0.00,,2013-03-22 14:31:00,
2013-03-22 07:52:00,46.0,16.0,29.52,NE,45,0.0,2.0,29,0.00,,,0.00,,2013-03-22 14:52:00,
2013-03-22 08:02:00,49.0,18.0,29.52,East,90,3.0,4.0,29,0.00,,,0.00,,2013-03-22 15:02:00,
2013-03-22 08:21:00,52.0,20.0,29.52,NE,45,2.0,5.0,28,0.00,,,0.00,,2013-03-22 15:21:00,
2013-03-22 08:32:00,56.0,23.0,29.52,East,90,3.0,4.0,27,0.00,,,0.00,,2013-03-22 15:32:00,
2013-03-22 08:52:00,59.0,24.0,29.52,East,90,5.0,6.0,26,0.00,,,0.00,,2013-03-22 15:52:00,
2013-03-22 09:02:00,63.0,26.0,29.52,ESE,113,3.0,4.0,24,0.00,,,0.00,,2013-03-22 16:02:00,
2013-03-22 09:12:00,66.0,28.0,29.49,ESE,113,1.0,3.0,24,0.00,,,0.00,,2013-03-22 16:12:00,
2013-03-22 09:32:00,68.0,29.0,29.49,West,270,3.0,5.0,23,0.00,,,0.00,,2013-03-22 16:32:00,
2013-03-22 09:42:00,67.0,28.0,29.49,SSE,158,4.0,4.0,23,0.00,,,0.00,,2013-03-22 16:42:00,
2013-03-22 10:02:00,68.0,28.0,29.49,SSE,158,5.0,6.0,22,0.00,,,0.00,,2013-03-22 17:02:00,
2013-03-22 10:12:00,71.0,30.0,29.49,South,180,4.0,5.0,22,0.00,,,0.00,,2013-03-22 17:12:00,
2013-03-22 10:22:00,71.0,30.0,29.49,South,180,4.0,5.0,22,0.00,,,0.00,,2013-03-22 17:22:00,
2013-03-22 10:32:00,72.0,30.0,29.52,South,180,2.0,5.0,21,0.00,,,0.00,,2013-03-22 17:32:00,
2013-03-22 10:52:00,71.0,27.0,29.52,ESE,113,2.0,6.0,19,0.00,,,0.00,,2013-03-22 17:52:00,
2013-03-22 11:01:00,73.0,28.0,29.49,SSW,203,3.0,5.0,19,0.00,,,0.00,,2013-03-22 18:01:00,
2013-03-22 11:21:00,74.0,25.0,29.49,WSW,248,5.0,10.0,16,0.00,,,0.00,,2013-03-22 18:21:00,
2013-03-22 11:32:00,75.0,24.0,29.49,West,270,6.0,6.0,15,0.00,,,0.00,,2013-03-22 18:32:00,
2013-03-22 11:42:00,75.0,24.0,29.49,West,270,6.0,6.0,15,0.00,,,0.00,,2013-03-22 18:42:00,
2013-03-22 11:52:00,75.0,21.0,29.49,WSW,248,6.0,10.0,13,0.00,,,0.00,,2013-03-22 18:52:00,
2013-03-22 12:02:00,75.0,21.0,29.49,SSE,158,4.0,6.0,13,0.00,,,0.00,,2013-03-22 19:02:00,
2013-03-22 12:21:00,75.0,21.0,29.49,WNW,293,2.0,5.0,13,0.00,,,0.00,,2013-03-22 19:21:00,
2013-03-22 12:32:00,75.0,21.0,29.49,WNW,293,6.0,8.0,13,0.00,,,0.00,,2013-03-22 19:32:00,
2013-03-22 12:42:00,75.0,21.0,29.49,WNW,293,6.0,8.0,13,0.00,,,0.00,,2013-03-22 19:42:00,
2013-03-22 12:52:00,76.0,22.0,29.46,West,270,5.0,6.0,13,0.00,,,0.00,,2013-03-22 19:52:00,
2013-03-22 13:01:00,76.0,22.0,29.49,SW,225,6.0,7.0,13,0.00,,,0.00,,2013-03-22 20:01:00,
2013-03-22 13:11:00,76.0,22.0,29.49,SW,225,6.0,7.0,13,0.00,,,0.00,,2013-03-22 20:11:00,
2013-03-22 13:22:00,76.0,22.0,29.46,South,180,7.0,12.0,13,0.00,,,0.00,,2013-03-22 20:22:00,
2013-03-22 13:31:00,76.0,22.0,29.46,WSW,248,8.0,12.0,13,0.00,,,0.00,,2013-03-22 20:31:00,
2013-03-22 13:42:00,76.0,22.0,29.46,WSW,248,8.0,12.0,13,0.00,,,0.00,,2013-03-22 20:42:00,
2013-03-22 13:52:00,76.0,22.0,29.46,WSW,248,9.0,11.0,13,0.00,,,0.00,,2013-03-22 20:52:00,
2013-03-22 14:01:00,75.0,21.0,29.46,West,270,9.0,15.0,13,0.00,,,0.00,,2013-03-22 21:01:00,
2013-03-22 14:11:00,73.0,21.0,29.46,West,270,7.0,13.0,14,0.00,,,0.00,,2013-03-22 21:11:00,
2013-03-22 14:21:00,73.0,21.0,29.46,West,270,7.0,13.0,14,0.00,,,0.00,,2013-03-22 21:21:00,
2013-03-22 14:32:00,73.0,21.0,29.42,South,180,6.0,7.0,14,0.00,,,0.00,,2013-03-22 21:32:00,
2013-03-22 14:42:00,73.0,21.0,29.42,South,180,6.0,7.0,14,0.00,,,0.00,,2013-03-22 21:42:00,
2013-03-22 14:53:00,73.0,21.0,29.42,WSW,248,9.0,13.0,14,0.00,,,0.00,,2013-03-22 21:53:00,
2013-03-22 15:02:00,74.0,20.0,29.42,SW,225,8.0,9.0,13,0.00,,,0.00,,2013-03-22 22:02:00,
2013-03-22 15:12:00,74.0,20.0,29.42,SW,225,8.0,9.0,13,0.00,,,0.00,,2013-03-22 22:12:00,
2013-03-22 15:22:00,74.0,20.0,29.42,SSW,203,9.0,15.0,13,0.00,,,0.00,,2013-03-22 22:22:00,
2013-03-22 15:31:00,72.0,20.0,29.39,SW,225,8.0,15.0,14,0.00,,,0.00,,2013-03-22 22:31:00,
2013-03-22 15:42:00,72.0,20.0,29.39,SW,225,8.0,15.0,14,0.00,,,0.00,,2013-03-22 22:42:00,
2013-03-22 15:52:00,69.0,19.0,29.42,SSE,158,10.0,13.0,15,0.00,,,0.00,,2013-03-22 22:52:00,
2013-03-22 16:01:00,68.0,19.0,29.42,South,180,13.0,13.0,15,0.00,,,0.00,,2013-03-22 23:01:00,
2013-03-22 16:11:00,68.0,19.0,29.42,South,180,13.0,13.0,15,0.00,,,0.00,,2013-03-22 23:11:00,
2013-03-22 16:21:00,69.0,19.0,29.39,SSW,203,6.0,12.0,15,0.00,,,0.00,,2013-03-22 23:21:00,
2013-03-22 16:32:00,68.0,19.0,29.39,SSW,203,10.0,13.0,15,0.00,,,0.00,,2013-03-22 23:32:00,
2013-03-22 16:52:00,69.0,19.0,29.42,South,180,6.0,9.0,15,0.00,,,0.00,,2013-03-22 23:52:00,
2013-03-22 17:01:00,69.0,19.0,29.39,SW,225,12.0,17.0,15,0.00,,,0.00,,2013-03-23 00:01:00,
2013-03-22 17:12:00,69.0,19.0,29.39,SW,225,12.0,17.0,15,0.00,,,0.00,,2013-03-23 00:12:00,
2013-03-22 17:22:00,69.0,14.0,29.39,North,0,10.0,17.0,12,0.00,,,0.00,,2013-03-23 00:22:00,
2013-03-22 17:32:00,69.0,14.0,29.39,West,270,12.0,23.0,12,0.00,,,0.00,,2013-03-23 00:32:00,
2013-03-22 17:41:00,68.0,14.0,29.39,WNW,293,13.0,17.0,12,0.00,,,0.00,,2013-03-23 00:41:00,
2013-03-22 17:52:00,68.0,14.0,29.39,WNW,293,13.0,17.0,12,0.00,,,0.00,,2013-03-23 00:52:00,
2013-03-22 18:02:00,67.0,13.0,29.39,NW,315,8.0,19.0,12,0.00,,,0.00,,2013-03-23 01:02:00,
2013-03-22 18:11:00,67.0,13.0,29.39,NW,315,8.0,19.0,12,0.00,,,0.00,,2013-03-23 01:11:00,
2013-03-22 18:22:00,66.0,12.0,29.39,West,270,10.0,18.0,12,0.00,,,0.00,,2013-03-23 01:22:00,
2013-03-22 18:31:00,65.0,13.0,29.42,West,270,9.0,13.0,13,0.00,,,0.00,,2013-03-23 01:31:00,
2013-03-22 18:42:00,65.0,13.0,29.42,West,270,9.0,13.0,13,0.00,,,0.00,,2013-03-23 01:42:00,
2013-03-22 18:52:00,64.0,12.0,29.42,WNW,293,10.0,11.0,13,0.00,,,0.00,,2013-03-23 01:52:00,
2013-03-22 19:02:00,63.0,11.0,29.42,WNW,293,5.0,6.0,13,0.00,,,0.00,,2013-03-23 02:02:00,
2013-03-22 19:12:00,63.0,11.0,29.42,WNW,293,5.0,6.0,13,0.00,,,0.00,,2013-03-23 02:12:00,
2013-03-22 19:22:00,62.0,12.0,29.46,West,270,4.0,11.0,14,0.00,,,0.00,,2013-03-23 02:22:00,
2013-03-22 19:31:00,61.0,11.0,29.46,WNW,293,3.0,6.0,14,0.00,,,0.00,,2013-03-23 02:31:00,
2013-03-22 19:42:00,61.0,11.0,29.46,WNW,293,3.0,6.0,14,0.00,,,0.00,,2013-03-23 02:42:00,
2013-03-22 19:52:00,60.0,11.0,29.46,West,270,4.0,6.0,14,0.00,,,0.00,,2013-03-23 02:52:00,
2013-03-22 20:01:00,59.0,10.0,29.46,WSW,248,4.0,5.0,14,0.00,,,0.00,,2013-03-23 03:01:00,
2013-03-22 20:11:00,59.0,10.0,29.46,WSW,248,4.0,5.0,14,0.00,,,0.00,,2013-03-23 03:11:00,
2013-03-22 20:22:00,58.0,9.0,29.46,West,270,2.0,3.0,14,0.00,,,0.00,,2013-03-23 03:22:00,
2013-03-22 20:32:00,57.0,10.0,29.46,West,270,5.0,6.0,15,0.00,,,0.00,,2013-03-23 03:32:00,
2013-03-22 20:42:00,57.0,10.0,29.46,West,270,5.0,6.0,15,0.00,,,0.00,,2013-03-23 03:42:00,
2013-03-22 20:53:00,56.0,9.0,29.49,WNW,293,3.0,4.0,15,0.00,,,0.00,,2013-03-23 03:53:00,
2013-03-22 21:02:00,55.0,8.0,29.49,NW,315,3.0,6.0,15,0.00,,,0.00,,2013-03-23 04:02:00,
2013-03-22 21:12:00,55.0,8.0,29.49,NW,315,3.0,6.0,15,0.00,,,0.00,,2013-03-23 04:12:00,
2013-03-22 21:22:00,55.0,8.0,29.52,NNW,338,6.0,7.0,15,0.00,,,0.00,,2013-03-23 04:22:00,
2013-03-22 21:32:00,55.0,8.0,29.49,West,270,6.0,8.0,15,0.00,,,0.00,,2013-03-23 04:32:00,
2013-03-22 21:42:00,55.0,8.0,29.49,West,270,6.0,8.0,15,0.00,,,0.00,,2013-03-23 04:42:00,
2013-03-22 21:53:00,55.0,8.0,29.52,WNW,293,4.0,8.0,15,0.00,,,0.00,,2013-03-23 04:53:00,
2013-03-22 22:02:00,55.0,8.0,29.52,West,270,5.0,6.0,15,0.00,,,0.00,,2013-03-23 05:02:00,
2013-03-22 22:11:00,55.0,8.0,29.52,West,270,5.0,6.0,15,0.00,,,0.00,,2013-03-23 05:11:00,
2013-03-22 22:21:00,54.0,7.0,29.52,WSW,248,4.0,4.0,15,0.00,,,0.00,,2013-03-23 05:21:00,
2013-03-22 22:32:00,53.0,8.0,29.49,WSW,248,3.0,4.0,16,0.00,,,0.00,,2013-03-23 05:32:00,
2013-03-22 22:42:00,53.0,8.0,29.49,WSW,248,3.0,4.0,16,0.00,,,0.00,,2013-03-23 05:42:00,
2013-03-22 22:52:00,52.0,7.0,29.56,SW,225,4.0,4.0,16,0.00,,,0.00,,2013-03-23 05:52:00,
2013-03-22 23:01:00,52.0,7.0,29.52,SSW,203,3.0,6.0,16,0.00,,,0.00,,2013-03-23 06:01:00,
2013-03-22 23:11:00,52.0,7.0,29.52,SSW,203,3.0,6.0,16,0.00,,,0.00,,2013-03-23 06:11:00,
2013-03-22 23:21:00,51.0,6.0,29.52,North,0,3.0,4.0,16,0.00,,,0.00,,2013-03-23 06:21:00,
2013-03-22 23:31:00,50.0,6.0,29.52,North,0,3.0,4.0,16,0.00,,,0.00,,2013-03-23 06:31:00,
2013-03-22 23:42:00,50.0,6.0,29.52,North,0,3.0,4.0,16,0.00,,,0.00,,2013-03-23 06:42:00,
2013-03-22 23:52:00,50.0,6.0,29.52,ESE,113,2.0,3.0,16,0.00,,,0.00,,2013-03-23 06:52:00,